Maersk Bali — 9V7499 — position and weather

sailwx.info

Track history (hours):
 
Tides and Currents Weather Stations Pressure Air Temp Water Temp Dewpoint Dewpoint Depression Visibility Wind Speed Wind Dir Waves Ship Positions

Maersk Bali

Last reported at 2017-Jul-15 16:42 UTC. Time now 2017-Jul-25 00:36 UTC.
Position N 09°16' W 079°55'.
Warning: this ship's position is 9 days out of date.

Length 223 m; draft 10.4 m.

Type: Ship (hazmat cat A). MMSI: 563102000.

Date/timePositionNaut miles runAvg speedWind from/ knotsBaromVisibWave heightAir tempDewpointWater temp
2017-Jul-15 16:42N 09°16' W 079°55'1 2.9
2017-Jul-15 16:30N 09°16' W 079°55'0 0.5
2017-Jul-15 16:00N 09°16' W 079°55'0 0.3
2017-Jul-15 15:28N 09°17' W 079°55'0 0.5
2017-Jul-15 15:00N 09°17' W 079°55'2 2.3
2017-Jul-15 14:01N 09°19' W 079°55'2 3.1
2017-Jul-15 13:30N 09°21' W 079°55'3 5.8
2017-Jul-15 13:00N 09°24' W 079°55'4 7.8
2017-Jul-15 12:30N 09°27' W 079°54'1 2.5
2017-Jul-15 12:01N 09°29' W 079°54'2 4.1
2017-Jul-15 11:31N 09°30' W 079°55'0 0.2
2017-Jul-15 10:58N 09°30' W 079°55'0 0.0
2017-Jul-15 10:28N 09°30' W 079°55'0 0.0
2017-Jul-15 09:58N 09°30' W 079°55'0 0.0
2017-Jul-15 09:28N 09°30' W 079°55'0 0.0
2017-Jul-15 08:58N 09°30' W 079°55'0 0.0
2017-Jul-15 08:07N 09°30' W 079°55'0 0.0
2017-Jul-15 07:43N 09°30' W 079°55'0 0.0
2017-Jul-15 07:28N 09°30' W 079°55'0 0.0
2017-Jul-15 06:58N 09°30' W 079°55'0 0.0
2017-Jul-15 06:28N 09°30' W 079°55'0 0.0
2017-Jul-15 05:58N 09°30' W 079°55'0 0.0
2017-Jul-15 05:28N 09°30' W 079°55'0 0.0
2017-Jul-15 04:58N 09°30' W 079°55'0 0.4
2017-Jul-15 04:30N 09°30' W 079°55'4 8.7
2017-Jul-15 04:00N 09°26' W 079°54'4 7.6
2017-Jul-15 03:30N 09°22' W 079°54'1 1.0
2017-Jul-15 03:00N 09°22' W 079°53'0 0.0
2017-Jul-15 02:30N 09°22' W 079°53'0 0.0
2017-Jul-15 02:00N 09°22' W 079°53'0 0.0
2017-Jul-15 01:30N 09°22' W 079°53'0 0.0
2017-Jul-15 01:00N 09°22' W 079°53'0 0.0
2017-Jul-15 00:30N 09°22' W 079°53'0 0.0
2017-Jul-15 00:00N 09°22' W 079°53'0 0.0
2017-Jul-14 23:30N 09°22' W 079°53'0 0.0
2017-Jul-14 23:00N 09°22' W 079°53'0 0.0
2017-Jul-14 22:30N 09°22' W 079°53'0 0.0
2017-Jul-14 22:00N 09°22' W 079°53'0 0.0
2017-Jul-14 21:30N 09°22' W 079°53'0 0.0
2017-Jul-14 21:00N 09°22' W 079°53'0 0.0
2017-Jul-14 20:30N 09°22' W 079°53'0 0.0
2017-Jul-14 20:00N 09°22' W 079°53'0 0.0
2017-Jul-14 19:30N 09°22' W 079°53'0 0.0
2017-Jul-14 19:00N 09°22' W 079°53'0 0.0
2017-Jul-14 18:30N 09°22' W 079°53'0 0.0
2017-Jul-14 18:00N 09°22' W 079°53'0 0.0
2017-Jul-14 17:30N 09°22' W 079°53'0 0.0
2017-Jul-14 17:00N 09°22' W 079°53'0 0.0
2017-Jul-14 16:30N 09°22' W 079°53'0 0.0
2017-Jul-14 16:00N 09°22' W 079°53'0 0.0
2017-Jul-14 15:30N 09°22' W 079°53'0 0.0
2017-Jul-14 15:00N 09°22' W 079°53'0 0.0
2017-Jul-14 14:30N 09°22' W 079°53'0 0.0
2017-Jul-14 14:00N 09°22' W 079°53'0 0.0
2017-Jul-14 13:30N 09°22' W 079°53'0 0.0
2017-Jul-14 13:00N 09°22' W 079°53'0 0.0
2017-Jul-14 12:30N 09°22' W 079°53'0 0.0
2017-Jul-14 12:00N 09°22' W 079°53'1 1.3
2017-Jul-14 11:30N 09°22' W 079°54'3 6.5
2017-Jul-14 11:00N 09°25' W 079°54'4 7.2
2017-Jul-14 10:30N 09°29' W 079°53'915.5
2017-Jul-14 09:54N 09°38' W 079°50'  
Track history (hours):
 
Tides and Currents Weather Stations Pressure Air Temp Water Temp Dewpoint Dewpoint Depression Visibility Wind Speed Wind Dir Waves Ship Positions

Maersk Bali

Last reported at 2017-Jul-15 16:42 UTC. Time now 2017-Jul-25 00:36 UTC.
Position N 09°16' W 079°55'.
Warning: this ship's position is 9 days out of date.

Length 223 m; draft 10.4 m.

Type: Ship (hazmat cat A). MMSI: 563102000.

Date/timePositionNaut miles runAvg speedWind from/ knotsBaromVisibWave heightAir tempDewpointWater temp
2017-Jul-15 16:42N 09°16' W 079°55'1 2.9
2017-Jul-15 16:30N 09°16' W 079°55'0 0.5
2017-Jul-15 16:00N 09°16' W 079°55'0 0.3
2017-Jul-15 15:28N 09°17' W 079°55'0 0.5
2017-Jul-15 15:00N 09°17' W 079°55'2 2.3
2017-Jul-15 14:01N 09°19' W 079°55'2 3.1
2017-Jul-15 13:30N 09°21' W 079°55'3 5.8
2017-Jul-15 13:00N 09°24' W 079°55'4 7.8
2017-Jul-15 12:30N 09°27' W 079°54'1 2.5
2017-Jul-15 12:01N 09°29' W 079°54'2 4.1
2017-Jul-15 11:31N 09°30' W 079°55'0 0.2
2017-Jul-15 10:58N 09°30' W 079°55'0 0.0
2017-Jul-15 10:28N 09°30' W 079°55'0 0.0
2017-Jul-15 09:58N 09°30' W 079°55'0 0.0
2017-Jul-15 09:28N 09°30' W 079°55'0 0.0
2017-Jul-15 08:58N 09°30' W 079°55'0 0.0
2017-Jul-15 08:07N 09°30' W 079°55'0 0.0
2017-Jul-15 07:43N 09°30' W 079°55'0 0.0
2017-Jul-15 07:28N 09°30' W 079°55'0 0.0
2017-Jul-15 06:58N 09°30' W 079°55'0 0.0
2017-Jul-15 06:28N 09°30' W 079°55'0 0.0
2017-Jul-15 05:58N 09°30' W 079°55'0 0.0
2017-Jul-15 05:28N 09°30' W 079°55'0 0.0
2017-Jul-15 04:58N 09°30' W 079°55'0 0.4
2017-Jul-15 04:30N 09°30' W 079°55'4 8.7
2017-Jul-15 04:00N 09°26' W 079°54'4 7.6
2017-Jul-15 03:30N 09°22' W 079°54'1 1.0
2017-Jul-15 03:00N 09°22' W 079°53'0 0.0
2017-Jul-15 02:30N 09°22' W 079°53'0 0.0
2017-Jul-15 02:00N 09°22' W 079°53'0 0.0
2017-Jul-15 01:30N 09°22' W 079°53'0 0.0
2017-Jul-15 01:00N 09°22' W 079°53'0 0.0
2017-Jul-15 00:30N 09°22' W 079°53'0 0.0
2017-Jul-15 00:00N 09°22' W 079°53'0 0.0
2017-Jul-14 23:30N 09°22' W 079°53'0 0.0
2017-Jul-14 23:00N 09°22' W 079°53'0 0.0
2017-Jul-14 22:30N 09°22' W 079°53'0 0.0
2017-Jul-14 22:00N 09°22' W 079°53'0 0.0
2017-Jul-14 21:30N 09°22' W 079°53'0 0.0
2017-Jul-14 21:00N 09°22' W 079°53'0 0.0
2017-Jul-14 20:30N 09°22' W 079°53'0 0.0
2017-Jul-14 20:00N 09°22' W 079°53'0 0.0
2017-Jul-14 19:30N 09°22' W 079°53'0 0.0
2017-Jul-14 19:00N 09°22' W 079°53'0 0.0
2017-Jul-14 18:30N 09°22' W 079°53'0 0.0
2017-Jul-14 18:00N 09°22' W 079°53'0 0.0
2017-Jul-14 17:30N 09°22' W 079°53'0 0.0
2017-Jul-14 17:00N 09°22' W 079°53'0 0.0
2017-Jul-14 16:30N 09°22' W 079°53'0 0.0
2017-Jul-14 16:00N 09°22' W 079°53'0 0.0
2017-Jul-14 15:30N 09°22' W 079°53'0 0.0
2017-Jul-14 15:00N 09°22' W 079°53'0 0.0
2017-Jul-14 14:30N 09°22' W 079°53'0 0.0
2017-Jul-14 14:00N 09°22' W 079°53'0 0.0
2017-Jul-14 13:30N 09°22' W 079°53'0 0.0
2017-Jul-14 13:00N 09°22' W 079°53'0 0.0
2017-Jul-14 12:30N 09°22' W 079°53'0 0.0
2017-Jul-14 12:00N 09°22' W 079°53'1 1.3
2017-Jul-14 11:30N 09°22' W 079°54'3 6.5
2017-Jul-14 11:00N 09°25' W 079°54'4 7.2
2017-Jul-14 10:30N 09°29' W 079°53'915.5
2017-Jul-14 09:54N 09°38' W 079°50'  

Dump ship's entire track history